Terminal Aerodrome Forecast
Issued by NWS Cleveland, OH

Home | Current Version | Previous Version | Text Only | Print | Product List | Glossary On
Versions: 1 2 3 4 5 6 7 8 9 10 11 12 13 14 15 16 17 18 19 20 21 22 23 24 25 26 27 28 29 30 31 32 33 34 35
285
FTUS41 KCLE 092340
TAFCLE
TAF
KCLE 092340Z 1000/1106 26012KT 3SM -SN OVC012
      TEMPO 1000/1003 1 1/2SM -SN OVC008
     FM100500 26014KT 6SM -SHSN OVC012
     FM101000 26014KT 4SM -SHSN OVC012
     FM101400 27012KT 1 1/2SM -SN OVC012
     FM102200 28012KT 3SM -SHSN OVC008=

USA.gov is the U.S. government's official web portal to all federal, state and local government web resources and services.